createdAt,value
2022-09-03T00:00:04.826Z,2.90
2022-09-03T00:02:40.094Z,2.40
2022-09-03T00:05:10.741Z,2.30
2022-09-03T00:07:59.531Z,2.93
2022-09-03T00:10:45.808Z,2.70
2022-09-03T00:13:19.891Z,2.80
2022-09-03T00:15:46.936Z,2.93
2022-09-03T00:18:20.660Z,2.70
2022-09-03T00:20:53.983Z,2.83
2022-09-03T00:23:23.711Z,2.70
2022-09-03T00:26:12.905Z,2.60
2022-09-03T00:28:49.147Z,2.67
2022-09-03T00:31:28.226Z,2.47
2022-09-03T00:34:06.023Z,2.40
2022-09-03T00:36:42.381Z,2.90
2022-09-03T00:39:15.272Z,2.80
2022-09-03T00:42:00.867Z,3.00
2022-09-03T00:45:00.873Z,2.50
2022-09-03T00:47:49.358Z,2.70
2022-09-03T00:50:50.482Z,3.27
2022-09-03T00:53:39.749Z,2.20
2022-09-03T00:56:54.724Z,2.60
2022-09-03T00:59:29.394Z,2.23
2022-09-03T01:02:14.750Z,2.90
2022-09-03T01:04:50.377Z,2.43
2022-09-03T01:07:46.403Z,2.70
2022-09-03T01:10:28.565Z,2.50
2022-09-03T01:13:03.255Z,2.23
2022-09-03T01:15:54.461Z,2.97
2022-09-03T01:18:28.650Z,2.57
2022-09-03T01:21:19.878Z,3.00
2022-09-03T01:24:11.161Z,2.87
2022-09-03T01:26:50.204Z,2.83
2022-09-03T01:29:39.942Z,2.50
2022-09-03T01:32:23.705Z,3.03
2022-09-03T01:35:08.779Z,2.20
2022-09-03T01:37:58.414Z,3.20
2022-09-03T01:40:34.262Z,2.83
2022-09-03T01:43:14.074Z,2.47
2022-09-03T01:45:51.127Z,3.03
2022-09-03T01:49:03.046Z,3.00
2022-09-03T01:51:31.429Z,2.43
2022-09-03T01:54:10.962Z,2.30
2022-09-03T01:57:35.773Z,2.77
2022-09-03T02:00:13.956Z,3.07
2022-09-03T02:02:43.586Z,2.60
2022-09-03T02:05:12.564Z,2.23
2022-09-03T02:07:42.768Z,2.87
2022-09-03T02:10:21.250Z,2.57
2022-09-03T02:13:01.924Z,2.47
2022-09-03T02:15:31.091Z,2.70
2022-09-03T02:18:02.119Z,2.80
2022-09-03T02:20:30.098Z,2.40
2022-09-03T02:22:58.408Z,2.60
2022-09-03T02:25:32.675Z,2.07
2022-09-03T02:28:00.992Z,2.60
2022-09-03T02:30:27.906Z,2.50
2022-09-03T02:32:54.676Z,2.80
2022-09-03T02:35:21.452Z,2.60
2022-09-03T02:37:48.237Z,2.30
2022-09-03T02:40:15.155Z,2.33
2022-09-03T02:42:42.150Z,3.13
2022-09-03T02:45:28.659Z,2.70
2022-09-03T02:47:58.869Z,2.83
2022-09-03T02:50:26.392Z,2.83
2022-09-03T02:52:53.519Z,3.20
2022-09-03T02:55:20.861Z,2.80
2022-09-03T02:57:47.577Z,2.90
2022-09-03T03:00:15.088Z,3.00
2022-09-03T03:02:42.034Z,2.67
2022-09-03T03:05:13.443Z,2.70
2022-09-03T03:07:41.189Z,2.50
2022-09-03T03:10:08.514Z,2.97
2022-09-03T03:12:35.406Z,2.70
2022-09-03T03:15:02.185Z,2.93
2022-09-03T03:17:28.972Z,2.70
2022-09-03T03:19:55.705Z,3.13
2022-09-03T03:22:22.417Z,3.37
2022-09-03T03:24:50.529Z,2.80
2022-09-03T03:27:18.932Z,2.60
2022-09-03T03:29:45.654Z,3.30
2022-09-03T03:32:12.418Z,3.00
2022-09-03T03:34:39.960Z,3.17
2022-09-03T03:37:06.992Z,2.70
2022-09-03T03:39:33.804Z,2.90
2022-09-03T03:42:00.538Z,3.40
2022-09-03T03:44:27.265Z,2.47
2022-09-03T03:46:54.001Z,2.70
2022-09-03T03:49:20.947Z,2.80
2022-09-03T03:51:47.670Z,2.97
2022-09-03T03:54:14.559Z,2.67
2022-09-03T03:56:44.584Z,2.80
2022-09-03T03:59:17.574Z,2.33
2022-09-03T04:01:44.405Z,2.50
2022-09-03T04:04:11.227Z,3.13
2022-09-03T04:06:37.958Z,2.80
2022-09-03T04:09:04.710Z,3.27
2022-09-03T04:11:31.480Z,2.97
2022-09-03T04:13:58.322Z,3.70
2022-09-03T04:16:27.407Z,3.03
2022-09-03T04:18:55.936Z,2.80
2022-09-03T04:21:28.526Z,2.57
2022-09-03T04:23:56.368Z,2.50
2022-09-03T04:26:31.825Z,2.90
2022-09-03T04:29:01.001Z,2.67
2022-09-03T04:31:28.280Z,2.60
2022-09-03T04:33:55.041Z,2.60
2022-09-03T04:36:24.513Z,3.37
2022-09-03T04:38:55.982Z,3.00
2022-09-03T04:41:30.637Z,2.80
2022-09-03T04:43:59.772Z,2.80
2022-09-03T04:46:33.468Z,2.93
2022-09-03T04:49:01.890Z,2.50
2022-09-03T04:51:29.959Z,2.73
2022-09-03T04:53:58.929Z,2.80
2022-09-03T04:56:28.101Z,2.47
2022-09-03T04:59:13.654Z,2.83
2022-09-03T05:01:41.136Z,2.30
2022-09-03T05:04:08.514Z,2.83
2022-09-03T05:06:37.015Z,2.97
2022-09-03T05:09:05.161Z,2.77
2022-09-03T05:11:32.072Z,3.27
2022-09-03T05:14:00.372Z,3.00
2022-09-03T05:16:30.352Z,2.80
2022-09-03T05:18:59.763Z,2.90
2022-09-03T05:21:28.439Z,2.80
2022-09-03T05:23:55.815Z,2.70
2022-09-03T05:26:25.623Z,2.83
2022-09-03T05:28:57.676Z,2.93
2022-09-03T05:31:26.789Z,2.87
2022-09-03T05:33:59.736Z,2.97
2022-09-03T05:36:29.151Z,2.70
2022-09-03T05:38:56.335Z,2.77
2022-09-03T05:41:26.564Z,3.40
2022-09-03T05:43:58.707Z,3.10
2022-09-03T05:46:34.049Z,2.50
2022-09-03T05:49:02.357Z,2.90
2022-09-03T05:51:30.560Z,3.10
2022-09-03T05:53:57.924Z,2.60
2022-09-03T05:56:26.934Z,2.97
2022-09-03T05:58:56.478Z,3.40
2022-09-03T06:01:26.375Z,3.60
2022-09-03T06:03:55.642Z,3.50
2022-09-03T06:06:26.180Z,3.60
2022-09-03T06:09:02.490Z,3.57
2022-09-03T06:11:30.806Z,3.70
2022-09-03T06:14:01.319Z,3.87
2022-09-03T06:16:31.644Z,3.83
2022-09-03T06:18:59.963Z,4.23
2022-09-03T06:21:27.300Z,3.70
2022-09-03T06:23:56.881Z,3.93
2022-09-03T06:26:29.212Z,4.20
2022-09-03T06:28:57.136Z,4.10
2022-09-03T06:31:25.075Z,3.97
2022-09-03T06:33:53.760Z,3.80
2022-09-03T06:36:22.721Z,3.20
2022-09-03T06:38:52.800Z,3.37
2022-09-03T06:41:25.269Z,3.70
2022-09-03T06:44:11.770Z,3.50
2022-09-03T06:46:42.379Z,4.13
2022-09-03T06:49:10.505Z,3.87
2022-09-03T06:51:38.929Z,3.07
2022-09-03T06:54:07.804Z,3.20
2022-09-03T06:56:40.003Z,4.00
2022-09-03T06:59:13.065Z,3.80
2022-09-03T07:01:44.482Z,3.23
2022-09-03T07:04:12.860Z,3.90
2022-09-03T07:06:42.515Z,3.30
2022-09-03T07:09:11.560Z,3.00
2022-09-03T07:11:46.576Z,3.40
2022-09-03T07:14:14.746Z,3.70
2022-09-03T07:16:43.001Z,3.80
2022-09-03T07:19:10.032Z,3.33
2022-09-03T07:21:37.157Z,3.40
2022-09-03T07:24:05.602Z,3.10
2022-09-03T07:26:38.132Z,3.50
2022-09-03T07:29:07.684Z,3.57
2022-09-03T07:31:37.224Z,3.30
2022-09-03T07:34:10.185Z,2.40
2022-09-03T07:36:43.305Z,2.73
2022-09-03T07:39:12.146Z,2.17
2022-09-03T07:41:43.229Z,2.10
2022-09-03T07:44:10.341Z,1.70
2022-09-03T07:46:38.214Z,1.73
2022-09-03T07:49:06.303Z,1.80
2022-09-03T07:51:36.263Z,1.83
2022-09-03T07:54:06.936Z,2.28
2022-09-03T07:56:35.793Z,2.03
2022-09-03T07:59:03.560Z,1.98
2022-09-03T08:01:32.764Z,1.85
2022-09-03T08:04:00.334Z,2.55
2022-09-03T08:06:28.772Z,1.70
2022-09-03T08:09:06.034Z,1.60
2022-09-03T08:11:36.405Z,2.03
2022-09-03T08:14:06.620Z,1.67
2022-09-03T08:16:35.358Z,1.90
2022-09-03T08:19:02.678Z,1.88
2022-09-03T08:21:29.880Z,1.73
2022-09-03T08:24:02.649Z,1.77
2022-09-03T08:26:31.944Z,1.77
2022-09-03T08:28:59.572Z,2.88
2022-09-03T08:31:28.482Z,1.85
2022-09-03T08:33:57.260Z,1.77
2022-09-03T08:36:27.634Z,2.10
2022-09-03T08:38:55.390Z,1.65
2022-09-03T08:41:43.938Z,2.00
2022-09-03T08:44:28.457Z,1.60
2022-09-03T08:47:15.892Z,1.90
2022-09-03T08:49:48.541Z,1.67
2022-09-03T08:52:33.165Z,1.90
2022-09-03T08:55:14.008Z,2.17
2022-09-03T08:57:47.844Z,1.83
2022-09-03T09:00:15.205Z,1.88
2022-09-03T09:03:14.149Z,1.77
2022-09-03T09:05:43.717Z,1.70
2022-09-03T09:08:18.001Z,1.75
2022-09-03T09:10:48.431Z,1.75
2022-09-03T09:13:24.022Z,2.03
2022-09-03T09:16:00.829Z,1.80
2022-09-03T09:18:36.287Z,1.75
2022-09-03T09:21:11.920Z,2.03
2022-09-03T09:23:46.015Z,1.98
2022-09-03T09:26:19.130Z,2.28
2022-09-03T09:28:50.041Z,2.10
2022-09-03T09:31:21.660Z,1.80
2022-09-03T09:33:49.225Z,1.80
2022-09-03T09:36:19.418Z,1.95
2022-09-03T09:38:48.823Z,2.03
2022-09-03T09:41:20.177Z,1.40
2022-09-03T09:43:50.751Z,2.30
2022-09-03T09:46:22.782Z,2.03
2022-09-03T09:48:51.735Z,2.10
2022-09-03T09:51:23.797Z,1.98
2022-09-03T09:54:17.143Z,1.95
2022-09-03T09:56:44.555Z,1.58
2022-09-03T09:59:13.570Z,2.17
2022-09-03T10:01:43.034Z,1.73
2022-09-03T10:04:23.215Z,1.48
2022-09-03T10:07:01.506Z,1.88
2022-09-03T10:09:31.013Z,1.70
2022-09-03T10:12:03.834Z,1.80
2022-09-03T10:14:35.370Z,1.75
2022-09-03T10:17:26.565Z,1.50
2022-09-03T10:20:25.275Z,1.60
2022-09-03T10:22:57.541Z,1.70
2022-09-03T10:25:32.962Z,2.13
2022-09-03T10:28:01.943Z,2.17
2022-09-03T10:30:33.114Z,1.60
2022-09-03T10:33:02.584Z,2.27
2022-09-03T10:35:30.635Z,2.60
2022-09-03T10:38:12.406Z,1.90
2022-09-03T10:40:43.435Z,2.60
2022-09-03T10:43:16.880Z,2.57
2022-09-03T10:46:01.417Z,2.53
2022-09-03T10:49:02.664Z,2.60
2022-09-03T10:51:35.741Z,1.90
2022-09-03T10:54:09.087Z,2.50
2022-09-03T10:56:36.215Z,2.90
2022-09-03T10:59:09.333Z,3.03
2022-09-03T11:02:15.329Z,2.43
2022-09-03T11:04:56.515Z,2.63
2022-09-03T11:07:27.000Z,2.27
2022-09-03T11:09:59.940Z,2.07
2022-09-03T11:12:37.817Z,2.20
2022-09-03T11:15:14.265Z,2.60
2022-09-03T11:17:48.568Z,2.70
2022-09-03T11:20:20.079Z,2.07
2022-09-03T11:22:48.719Z,2.50
2022-09-03T11:25:17.738Z,2.27
2022-09-03T11:27:54.602Z,2.40
2022-09-03T11:30:47.340Z,2.03
2022-09-03T11:33:14.978Z,2.80
2022-09-03T11:35:43.193Z,2.30
2022-09-03T11:38:16.609Z,2.60
2022-09-03T11:40:58.360Z,2.50
2022-09-03T11:43:25.197Z,1.97
2022-09-03T11:46:12.497Z,2.20
2022-09-03T11:48:41.141Z,1.90
2022-09-03T11:51:41.835Z,1.90
2022-09-03T11:54:15.013Z,2.13
2022-09-03T11:56:42.979Z,2.00
2022-09-03T11:59:18.813Z,2.40
2022-09-03T12:02:10.353Z,2.30
2022-09-03T12:04:50.791Z,2.30
2022-09-03T12:07:20.233Z,2.27
2022-09-03T12:10:06.845Z,2.10
2022-09-03T12:12:41.882Z,2.10
2022-09-03T12:15:19.139Z,2.30
2022-09-03T12:18:18.425Z,3.33
2022-09-03T12:20:46.307Z,2.37
2022-09-03T12:23:15.168Z,2.50
2022-09-03T12:25:48.458Z,2.13
2022-09-03T12:28:21.862Z,2.57
2022-09-03T12:30:49.272Z,2.30
2022-09-03T12:33:19.813Z,2.30
2022-09-03T12:35:59.189Z,2.40
2022-09-03T12:38:27.800Z,2.37
2022-09-03T12:43:46.226Z,2.20
2022-09-03T12:46:17.869Z,2.40
2022-09-03T12:52:05.777Z,2.40
2022-09-03T12:54:34.311Z,2.53
2022-09-03T12:57:02.079Z,2.20
2022-09-03T12:59:32.551Z,2.40
2022-09-03T13:02:03.740Z,2.30
2022-09-03T13:04:33.655Z,2.50
2022-09-03T13:07:06.035Z,2.47
2022-09-03T13:09:34.689Z,2.13
2022-09-03T13:12:05.542Z,2.63
2022-09-03T13:14:43.947Z,2.20
2022-09-03T13:17:30.383Z,2.50
2022-09-03T13:20:03.357Z,1.97
2022-09-03T13:22:30.791Z,2.50
2022-09-03T13:25:24.210Z,2.40
2022-09-03T13:27:51.397Z,2.57
2022-09-03T13:30:23.205Z,1.77
2022-09-03T13:33:00.947Z,2.03
2022-09-03T13:35:49.431Z,1.97
2022-09-03T13:38:28.481Z,2.10
2022-09-03T13:40:59.707Z,1.80
2022-09-03T13:43:37.953Z,2.20
2022-09-03T13:46:20.832Z,2.00
2022-09-03T13:49:09.649Z,2.33
2022-09-03T13:51:44.943Z,2.60
2022-09-03T13:54:48.045Z,2.57
2022-09-03T13:57:34.800Z,2.30
2022-09-03T14:00:11.499Z,2.00
2022-09-03T14:02:47.418Z,2.00
2022-09-03T14:05:23.969Z,2.43
2022-09-03T14:07:57.007Z,2.00
2022-09-03T14:10:45.871Z,2.30
2022-09-03T14:13:37.186Z,2.57
2022-09-03T14:16:13.046Z,2.07
2022-09-03T14:19:11.611Z,2.97
2022-09-03T14:21:48.834Z,1.70
2022-09-03T14:24:22.987Z,2.23
2022-09-03T14:26:54.041Z,2.33
2022-09-03T14:29:28.061Z,2.10
2022-09-03T14:32:12.768Z,2.27
2022-09-03T14:35:10.399Z,2.20
2022-09-03T14:38:05.120Z,1.93
2022-09-03T14:40:45.796Z,1.80
2022-09-03T14:43:33.811Z,2.27
2022-09-03T14:46:17.922Z,2.03
2022-09-03T14:48:54.804Z,2.00
2022-09-03T14:51:28.068Z,2.40
2022-09-03T14:54:31.905Z,2.27
2022-09-03T14:57:36.164Z,1.77
2022-09-03T15:00:20.018Z,2.03
2022-09-03T15:03:12.046Z,2.07
2022-09-03T15:06:12.710Z,2.10
2022-09-03T15:09:17.108Z,2.33
2022-09-03T15:12:08.461Z,2.43
2022-09-03T15:14:47.848Z,2.07
2022-09-03T15:17:26.355Z,2.10
2022-09-03T15:20:20.717Z,2.10
2022-09-03T15:22:58.084Z,2.10
2022-09-03T15:25:49.345Z,2.23
2022-09-03T15:28:57.756Z,2.10
2022-09-03T15:31:33.911Z,2.23
2022-09-03T15:34:23.641Z,2.43
2022-09-03T15:36:54.093Z,1.93
2022-09-03T15:39:35.228Z,2.13
2022-09-03T15:42:07.901Z,1.93
2022-09-03T15:44:49.769Z,2.27
2022-09-03T15:47:50.909Z,2.40
2022-09-03T15:50:43.261Z,2.40
2022-09-03T15:53:34.784Z,2.30
2022-09-03T15:56:28.180Z,2.90
2022-09-03T15:59:33.241Z,2.43
2022-09-03T16:02:06.095Z,2.00
2022-09-03T16:05:11.411Z,2.37
2022-09-03T16:07:38.104Z,2.57
2022-09-03T16:10:25.327Z,2.20
2022-09-03T16:13:17.129Z,4.00
2022-09-03T16:15:51.877Z,2.90
2022-09-03T16:19:05.980Z,2.37
2022-09-03T16:21:50.368Z,2.37
2022-09-03T16:24:23.149Z,2.13
2022-09-03T16:27:11.243Z,2.50
2022-09-03T16:29:38.968Z,2.83
2022-09-03T16:32:40.801Z,2.50
2022-09-03T16:35:28.386Z,2.17
2022-09-03T16:38:13.736Z,2.73
2022-09-03T16:41:03.044Z,3.00
2022-09-03T16:43:42.526Z,2.67
2022-09-03T16:46:23.020Z,2.80
2022-09-03T16:49:11.198Z,3.50
2022-09-03T16:52:10.565Z,2.67
2022-09-03T16:54:57.120Z,2.83
2022-09-03T16:57:44.863Z,2.73
2022-09-03T17:00:14.660Z,3.57
2022-09-03T17:03:03.793Z,2.90
2022-09-03T17:05:48.520Z,2.77
2022-09-03T17:08:30.472Z,2.93
2022-09-03T17:10:59.962Z,2.90
2022-09-03T17:13:46.680Z,2.50
2022-09-03T17:16:20.354Z,2.47
2022-09-03T17:19:07.075Z,3.13
2022-09-03T17:22:06.450Z,3.20
2022-09-03T17:25:14.048Z,3.07
2022-09-03T17:27:49.164Z,3.37
2022-09-03T17:30:34.602Z,3.77
2022-09-03T17:33:46.340Z,2.87
2022-09-03T17:36:27.878Z,2.60
2022-09-03T17:39:09.646Z,2.30
2022-09-03T17:41:43.145Z,2.80
2022-09-03T17:44:21.600Z,2.80
2022-09-03T17:47:12.769Z,3.30
2022-09-03T17:49:50.640Z,3.70
2022-09-03T17:52:27.954Z,3.33
2022-09-03T17:55:02.364Z,3.37
2022-09-03T17:57:46.851Z,3.90
2022-09-03T18:00:25.680Z,2.90
2022-09-03T18:03:07.142Z,4.10
2022-09-03T18:06:00.850Z,4.20
2022-09-03T18:08:43.522Z,6.13
2022-09-03T18:11:28.405Z,5.60
2022-09-03T18:14:03.992Z,4.47
2022-09-03T18:16:34.876Z,4.50
2022-09-03T18:19:29.314Z,4.33
2022-09-03T18:22:19.089Z,3.60
2022-09-03T18:25:14.676Z,3.87
2022-09-03T18:28:09.861Z,4.27
2022-09-03T18:30:55.271Z,3.70
2022-09-03T18:33:44.673Z,3.50
2022-09-03T18:36:31.536Z,4.17
2022-09-03T18:39:30.475Z,4.00
2022-09-03T18:42:45.375Z,5.67
2022-09-03T18:46:22.623Z,4.10
2022-09-03T18:49:21.505Z,4.30
2022-09-03T18:52:50.820Z,6.17
2022-09-03T18:55:57.173Z,3.97
2022-09-03T18:58:59.412Z,3.60
2022-09-03T19:01:53.467Z,4.30
2022-09-03T19:05:10.668Z,3.97
2022-09-03T19:08:21.867Z,4.30
2022-09-03T19:11:13.467Z,3.93
2022-09-03T19:13:59.567Z,4.87
2022-09-03T19:17:06.707Z,3.30
2022-09-03T19:20:09.799Z,3.73
2022-09-03T19:22:59.721Z,3.63
2022-09-03T19:25:47.402Z,5.20
2022-09-03T19:28:45.043Z,4.37
2022-09-03T19:31:41.259Z,3.60
2022-09-03T19:34:38.613Z,3.77
2022-09-03T19:37:41.503Z,3.50
2022-09-03T19:40:46.160Z,3.60
2022-09-03T19:43:42.205Z,3.50
2022-09-03T19:46:33.891Z,4.70
2022-09-03T19:49:34.939Z,4.17
2022-09-03T19:52:25.019Z,3.57
2022-09-03T19:55:14.485Z,3.47
2022-09-03T19:58:02.108Z,3.37
2022-09-03T20:00:47.841Z,3.67
2022-09-03T20:03:33.170Z,4.03
2022-09-03T20:06:23.368Z,4.80
2022-09-03T20:09:09.925Z,5.93
2022-09-03T20:11:39.027Z,4.90
2022-09-03T20:14:14.113Z,4.87
2022-09-03T20:17:05.874Z,4.20
2022-09-03T20:19:37.939Z,4.00
2022-09-03T20:22:42.700Z,3.50
2022-09-03T20:25:34.502Z,3.50
2022-09-03T20:28:16.423Z,3.47
2022-09-03T20:30:58.140Z,3.70
2022-09-03T20:33:28.025Z,3.33
2022-09-03T20:36:21.904Z,3.57
2022-09-03T20:39:17.105Z,3.67
2022-09-03T20:42:04.523Z,3.47
2022-09-03T20:44:31.913Z,4.00
2022-09-03T20:47:42.026Z,3.20
2022-09-03T20:50:43.663Z,2.90
2022-09-03T20:53:32.661Z,3.03
2022-09-03T20:56:11.794Z,3.23
2022-09-03T20:59:07.676Z,3.00
2022-09-03T21:01:47.997Z,3.40
2022-09-03T21:04:24.359Z,4.13
2022-09-03T21:07:27.819Z,3.40
2022-09-03T21:10:14.943Z,3.00
2022-09-03T21:12:57.173Z,3.50
2022-09-03T21:15:26.420Z,3.40
2022-09-03T21:17:59.145Z,3.30
2022-09-03T21:20:34.659Z,3.77
2022-09-03T21:23:15.949Z,3.70
2022-09-03T21:25:54.060Z,3.47
2022-09-03T21:28:27.278Z,3.33
2022-09-03T21:31:13.918Z,3.40
2022-09-03T21:33:50.053Z,3.50
2022-09-03T21:36:30.194Z,3.60
2022-09-03T21:39:10.193Z,3.87
2022-09-03T21:41:47.557Z,3.80
2022-09-03T21:44:38.599Z,3.67
2022-09-03T21:47:10.108Z,4.53
2022-09-03T21:50:08.734Z,7.17
2022-09-03T21:52:47.737Z,6.07
2022-09-03T21:55:50.593Z,4.97
2022-09-03T21:58:29.058Z,5.20
2022-09-03T22:01:06.940Z,4.70
2022-09-03T22:03:34.162Z,4.10
2022-09-03T22:06:09.747Z,3.90
2022-09-03T22:08:46.279Z,3.80
2022-09-03T22:11:23.046Z,3.50
2022-09-03T22:13:54.428Z,3.77
2022-09-03T22:16:37.890Z,3.90
2022-09-03T22:19:07.776Z,3.83
2022-09-03T22:21:59.951Z,3.63
2022-09-03T22:24:41.686Z,3.93
2022-09-03T22:27:20.647Z,3.50
2022-09-03T22:30:08.472Z,4.00
2022-09-03T22:32:47.315Z,3.40
2022-09-03T22:35:26.063Z,3.40
2022-09-03T22:38:19.389Z,3.63
2022-09-03T22:41:16.072Z,3.70
2022-09-03T22:43:54.661Z,3.70
2022-09-03T22:46:23.506Z,3.50
2022-09-03T22:49:42.701Z,4.00
2022-09-03T22:52:44.158Z,3.27
2022-09-03T22:55:16.541Z,4.40
2022-09-03T22:58:07.193Z,4.20
2022-09-03T23:01:09.410Z,3.73
2022-09-03T23:03:49.978Z,3.30
2022-09-03T23:06:39.539Z,3.50
2022-09-03T23:09:14.050Z,4.47
2022-09-03T23:12:00.693Z,3.60
2022-09-03T23:14:56.477Z,4.17
2022-09-03T23:20:20.112Z,3.70
2022-09-03T23:23:18.032Z,3.80
2022-09-03T23:25:51.476Z,3.80
2022-09-03T23:28:31.929Z,4.00
2022-09-03T23:31:17.090Z,4.30
2022-09-03T23:33:46.086Z,3.60
2022-09-03T23:37:01.470Z,3.87
2022-09-03T23:39:31.559Z,3.63
2022-09-03T23:42:07.063Z,3.93
2022-09-03T23:44:52.943Z,4.17
2022-09-03T23:47:34.720Z,3.57
2022-09-03T23:50:13.036Z,3.77
2022-09-03T23:53:17.594Z,3.77
2022-09-03T23:55:44.275Z,3.80
2022-09-03T23:58:56.217Z,3.80
